createdAt,value
2023-03-15T00:01:37.580Z,3.67
2023-03-15T00:04:09.731Z,3.69
2023-03-15T00:06:41.771Z,3.65
2023-03-15T00:09:13.837Z,3.65
2023-03-15T00:11:45.899Z,3.63
2023-03-15T00:14:18.052Z,3.57
2023-03-15T00:16:50.534Z,3.60
2023-03-15T00:19:22.586Z,3.60
2023-03-15T00:21:54.765Z,3.62
2023-03-15T00:24:26.749Z,3.61
2023-03-15T00:26:58.835Z,3.52
2023-03-15T00:29:30.806Z,3.55
2023-03-15T00:32:02.954Z,3.49
2023-03-15T00:34:36.453Z,3.49
2023-03-15T00:37:08.854Z,3.49
2023-03-15T00:39:41.084Z,3.46
2023-03-15T00:42:15.735Z,3.51
2023-03-15T00:44:48.638Z,3.54
2023-03-15T00:47:20.813Z,3.57
2023-03-15T00:49:53.280Z,3.60
2023-03-15T00:52:26.325Z,3.59
2023-03-15T00:54:58.528Z,3.58
2023-03-15T00:57:30.748Z,3.58
2023-03-15T01:00:08.959Z,3.56
2023-03-15T01:02:41.918Z,3.53
2023-03-15T01:05:14.632Z,3.52
2023-03-15T01:07:46.760Z,3.50
2023-03-15T01:10:20.039Z,3.51
2023-03-15T01:12:52.054Z,3.49
2023-03-15T01:15:24.433Z,3.46
2023-03-15T01:17:56.810Z,3.45
2023-03-15T01:20:29.794Z,3.45
2023-03-15T01:23:01.756Z,3.41
2023-03-15T01:25:33.860Z,3.38
2023-03-15T01:28:06.195Z,3.35
2023-03-15T01:30:38.406Z,3.36
2023-03-15T01:33:11.106Z,3.38
2023-03-15T01:35:43.799Z,3.40
2023-03-15T01:38:16.126Z,3.43
2023-03-15T01:40:49.190Z,3.44
2023-03-15T01:43:23.809Z,3.43
2023-03-15T01:46:03.484Z,3.42
2023-03-15T01:48:45.207Z,3.43
2023-03-15T01:51:26.847Z,3.40
2023-03-15T01:54:04.060Z,3.42
2023-03-15T01:56:41.674Z,3.41
2023-03-15T01:59:19.660Z,3.41
2023-03-15T02:01:54.718Z,3.44
2023-03-15T02:04:31.581Z,3.51
2023-03-15T02:07:04.943Z,3.55
2023-03-15T02:09:45.746Z,3.56
2023-03-15T02:12:18.432Z,3.53
2023-03-15T02:14:55.294Z,3.51
2023-03-15T02:17:36.792Z,3.48
2023-03-15T02:20:27.447Z,3.46
2023-03-15T02:23:02.333Z,3.43
2023-03-15T02:25:44.230Z,3.41
2023-03-15T02:28:19.178Z,3.38
2023-03-15T02:30:51.520Z,3.40
2023-03-15T02:33:26.791Z,3.43
2023-03-15T02:36:08.266Z,3.43
2023-03-15T02:38:40.600Z,3.43
2023-03-15T02:41:13.797Z,3.40
2023-03-15T02:43:47.138Z,3.37
2023-03-15T02:46:20.917Z,3.32
2023-03-15T02:48:54.935Z,3.27
2023-03-15T02:51:29.266Z,3.24
2023-03-15T02:54:02.631Z,3.19
2023-03-15T02:56:34.732Z,3.14
2023-03-15T02:59:07.007Z,3.11
2023-03-15T03:01:39.191Z,3.11
2023-03-15T03:04:11.431Z,3.13
2023-03-15T03:06:44.272Z,3.16
2023-03-15T03:09:17.396Z,3.17
2023-03-15T03:11:49.605Z,3.14
2023-03-15T03:14:23.977Z,3.11
2023-03-15T03:16:56.096Z,3.11
2023-03-15T03:19:28.455Z,3.05
2023-03-15T03:22:01.123Z,3.03
2023-03-15T03:24:33.982Z,3.01
2023-03-15T03:27:06.327Z,2.99
2023-03-15T03:29:39.044Z,2.93
2023-03-15T03:32:12.235Z,2.92
2023-03-15T03:34:48.424Z,2.95
2023-03-15T03:37:21.927Z,2.97
2023-03-15T03:40:08.443Z,2.95
2023-03-15T03:42:40.971Z,2.98
2023-03-15T03:45:14.389Z,2.97
2023-03-15T03:47:48.611Z,2.96
2023-03-15T03:50:21.257Z,2.92
2023-03-15T03:52:53.504Z,2.86
2023-03-15T03:55:34.157Z,2.80
2023-03-15T03:58:06.264Z,2.77
2023-03-15T04:00:43.783Z,2.70
2023-03-15T04:03:16.535Z,2.67
2023-03-15T04:05:53.004Z,2.66
2023-03-15T04:08:28.417Z,2.61
2023-03-15T04:11:04.273Z,2.60
2023-03-15T04:13:39.409Z,2.64
2023-03-15T04:16:12.989Z,2.67
2023-03-15T04:18:57.649Z,2.67
2023-03-15T04:21:32.139Z,2.64
2023-03-15T04:24:16.105Z,2.61
2023-03-15T04:27:15.016Z,2.59
2023-03-15T04:30:27.349Z,2.53
2023-03-15T04:33:18.744Z,2.49
2023-03-15T04:36:04.624Z,2.49
2023-03-15T04:38:36.780Z,2.48
2023-03-15T04:41:31.893Z,2.45
2023-03-15T04:44:19.305Z,2.38
2023-03-15T04:47:09.717Z,2.35
2023-03-15T04:49:50.415Z,2.27
2023-03-15T04:52:41.588Z,2.31
2023-03-15T04:55:27.042Z,2.37
2023-03-15T04:58:01.629Z,2.41
2023-03-15T05:00:57.204Z,2.42
2023-03-15T05:03:50.784Z,2.50
2023-03-15T05:06:23.713Z,2.45
2023-03-15T05:09:19.330Z,2.39
2023-03-15T05:12:11.014Z,2.30
2023-03-15T05:14:55.902Z,2.22
2023-03-15T05:17:59.732Z,2.20
2023-03-15T05:20:38.007Z,2.21
2023-03-15T05:23:23.306Z,2.21
2023-03-15T05:26:18.174Z,2.21
2023-03-15T05:29:19.937Z,2.23
2023-03-15T05:32:30.360Z,2.26
2023-03-15T05:35:31.891Z,2.27
2023-03-15T05:38:26.691Z,2.30
2023-03-15T05:41:18.420Z,2.35
2023-03-15T05:44:19.844Z,2.41
2023-03-15T05:47:21.199Z,2.51
2023-03-15T05:50:14.973Z,2.58
2023-03-15T05:53:16.674Z,2.61
2023-03-15T05:56:01.174Z,2.62
2023-03-15T05:58:52.369Z,2.64
2023-03-15T06:01:43.006Z,2.64
2023-03-15T06:04:20.339Z,2.66
2023-03-15T06:06:52.616Z,2.69
2023-03-15T06:09:25.248Z,2.68
2023-03-15T06:11:59.168Z,2.69
2023-03-15T06:14:31.685Z,2.71
2023-03-15T06:17:06.563Z,2.76
2023-03-15T06:19:38.734Z,2.77
2023-03-15T06:22:11.109Z,2.80
2023-03-15T06:24:49.420Z,2.82
2023-03-15T06:27:22.321Z,2.84
2023-03-15T06:29:56.346Z,2.85
2023-03-15T06:32:28.949Z,2.88
2023-03-15T06:35:01.102Z,2.98
2023-03-15T06:37:35.651Z,3.11
2023-03-15T06:40:11.542Z,3.20
2023-03-15T06:42:44.263Z,3.27
2023-03-15T06:45:17.684Z,3.36
2023-03-15T06:47:50.640Z,3.40
2023-03-15T06:50:23.152Z,3.48
2023-03-15T06:52:55.515Z,3.51
2023-03-15T06:55:27.758Z,3.54
2023-03-15T06:58:00.206Z,3.53
2023-03-15T07:00:32.286Z,3.55
2023-03-15T07:03:04.476Z,3.59
2023-03-15T07:05:37.380Z,3.60
2023-03-15T07:08:09.732Z,3.66
2023-03-15T07:10:41.893Z,3.78
2023-03-15T07:13:14.045Z,3.86
2023-03-15T07:15:48.016Z,3.93
2023-03-15T07:18:20.250Z,3.94
2023-03-15T07:20:59.061Z,3.96
2023-03-15T07:23:31.562Z,4.00
2023-03-15T07:26:03.864Z,3.91
2023-03-15T07:28:35.825Z,3.92
2023-03-15T07:31:08.952Z,3.92
2023-03-15T07:33:41.660Z,3.88
2023-03-15T07:36:13.725Z,3.90
2023-03-15T07:38:45.729Z,3.89
2023-03-15T07:41:17.961Z,3.95
2023-03-15T07:44:02.330Z,4.02
2023-03-15T07:46:35.095Z,4.01
2023-03-15T07:49:07.507Z,4.08
2023-03-15T07:51:39.611Z,4.08
2023-03-15T07:54:11.735Z,4.14
2023-03-15T07:56:43.965Z,4.24
2023-03-15T07:59:16.136Z,4.36
2023-03-15T08:01:48.354Z,4.40
2023-03-15T08:04:20.343Z,4.45
2023-03-15T08:06:52.432Z,4.55
2023-03-15T08:09:25.110Z,4.62
2023-03-15T08:11:57.226Z,4.70
2023-03-15T08:14:31.732Z,4.69
2023-03-15T08:17:03.781Z,4.66
2023-03-15T08:19:35.763Z,4.64
2023-03-15T08:22:08.018Z,4.65
2023-03-15T08:24:40.410Z,4.60
2023-03-15T08:27:12.753Z,4.66
2023-03-15T08:29:44.801Z,4.76
2023-03-15T08:32:17.496Z,4.85
2023-03-15T08:34:49.858Z,4.99
2023-03-15T08:37:22.353Z,5.23
2023-03-15T08:40:01.136Z,5.42
2023-03-15T08:42:33.386Z,5.58
2023-03-15T08:45:07.281Z,5.67
2023-03-15T08:47:39.470Z,5.77
2023-03-15T08:50:15.276Z,5.82
2023-03-15T08:52:47.633Z,5.90
2023-03-15T08:55:19.959Z,6.03
2023-03-15T08:57:52.225Z,6.10
2023-03-15T09:00:25.212Z,6.24
2023-03-15T09:02:57.648Z,6.34
2023-03-15T09:05:29.897Z,6.41
2023-03-15T09:08:02.180Z,6.40
2023-03-15T09:10:34.904Z,6.43
2023-03-15T09:13:07.143Z,6.39
2023-03-15T09:15:39.303Z,6.49
2023-03-15T09:18:11.400Z,6.51
2023-03-15T09:20:43.595Z,6.54
2023-03-15T09:23:16.258Z,6.53
2023-03-15T09:25:48.464Z,6.51
2023-03-15T09:28:20.934Z,6.49
2023-03-15T09:30:53.054Z,6.42
2023-03-15T09:33:25.260Z,6.40
2023-03-15T09:35:57.417Z,6.33
2023-03-15T09:38:29.579Z,6.35
2023-03-15T09:41:03.906Z,6.35
2023-03-15T09:43:50.270Z,6.32
2023-03-15T09:46:35.134Z,6.22
2023-03-15T09:49:16.236Z,6.25
2023-03-15T09:51:54.314Z,6.33
2023-03-15T09:54:33.401Z,6.36
2023-03-15T09:57:11.712Z,6.29
2023-03-15T09:59:47.824Z,6.47
2023-03-15T10:02:20.842Z,6.62
2023-03-15T10:04:57.606Z,6.68
2023-03-15T10:07:30.127Z,6.70
2023-03-15T10:10:05.142Z,6.67
2023-03-15T10:12:42.181Z,6.60
2023-03-15T10:15:38.137Z,6.59
2023-03-15T10:18:28.920Z,6.66
2023-03-15T10:21:07.576Z,6.70
2023-03-15T10:23:47.986Z,6.64
2023-03-15T10:26:24.825Z,6.59
2023-03-15T10:28:57.471Z,6.46
2023-03-15T10:31:44.447Z,6.40
2023-03-15T10:34:18.097Z,6.42
2023-03-15T10:36:55.603Z,6.45
2023-03-15T10:39:28.707Z,6.56
2023-03-15T10:42:01.199Z,6.60
2023-03-15T10:44:38.079Z,6.63
2023-03-15T10:47:23.558Z,6.54
2023-03-15T10:50:00.795Z,6.52
2023-03-15T10:52:38.923Z,6.50
2023-03-15T10:55:16.077Z,6.50
2023-03-15T10:57:57.134Z,6.53
2023-03-15T11:00:36.450Z,6.54
2023-03-15T11:03:19.754Z,6.51
2023-03-15T11:05:54.554Z,6.56
2023-03-15T11:08:37.718Z,6.61
2023-03-15T11:11:10.978Z,6.59
2023-03-15T11:13:56.349Z,6.59
2023-03-15T11:16:37.148Z,6.64
2023-03-15T11:19:17.246Z,6.58
2023-03-15T11:21:52.213Z,6.59
2023-03-15T11:24:28.825Z,6.63
2023-03-15T11:27:03.859Z,6.70
2023-03-15T11:29:39.070Z,6.76
2023-03-15T11:32:18.294Z,6.83
2023-03-15T11:34:58.195Z,7.03
2023-03-15T11:37:36.103Z,7.20
2023-03-15T11:40:18.165Z,7.40
2023-03-15T11:42:56.205Z,7.57
2023-03-15T11:45:35.811Z,7.63
2023-03-15T11:48:32.518Z,7.66
2023-03-15T11:51:05.940Z,7.64
2023-03-15T11:53:42.794Z,7.70
2023-03-15T11:56:27.902Z,7.78
2023-03-15T11:59:13.392Z,7.94
2023-03-15T12:01:50.380Z,8.07
2023-03-15T12:04:52.128Z,8.26
2023-03-15T12:08:00.297Z,8.83
2023-03-15T12:10:47.663Z,8.85
2023-03-15T12:13:27.625Z,8.76
2023-03-15T12:16:00.073Z,8.53
2023-03-15T12:18:40.560Z,8.32
2023-03-15T12:21:21.125Z,8.18
2023-03-15T12:24:04.006Z,8.02
2023-03-15T12:26:43.220Z,7.88
2023-03-15T12:29:25.823Z,7.78
2023-03-15T12:32:08.143Z,7.71
2023-03-15T12:34:49.791Z,7.72
2023-03-15T12:37:25.792Z,7.69
2023-03-15T12:40:26.537Z,7.66
2023-03-15T12:43:05.011Z,7.68
2023-03-15T12:45:43.660Z,7.70
2023-03-15T12:48:25.194Z,7.73
2023-03-15T12:51:14.617Z,7.73
2023-03-15T12:53:51.329Z,7.68
2023-03-15T12:56:33.591Z,7.73
2023-03-15T12:59:08.861Z,7.79
2023-03-15T13:01:42.876Z,7.85
2023-03-15T13:04:16.033Z,7.91
2023-03-15T13:06:59.724Z,7.86
2023-03-15T13:09:51.155Z,7.93
2023-03-15T13:12:30.169Z,8.00
2023-03-15T13:15:07.968Z,8.03
2023-03-15T13:17:48.575Z,7.99
2023-03-15T13:20:38.532Z,7.96
2023-03-15T13:23:18.331Z,7.94
2023-03-15T13:26:04.035Z,7.89
2023-03-15T13:28:40.519Z,7.83
2023-03-15T13:31:22.730Z,7.78
2023-03-15T13:33:57.642Z,7.77
2023-03-15T13:36:40.194Z,7.98
2023-03-15T13:39:23.333Z,9.02
2023-03-15T13:42:02.571Z,10.36
2023-03-15T13:44:35.883Z,10.98
2023-03-15T13:47:08.158Z,11.27
2023-03-15T13:49:40.957Z,12.26
2023-03-15T13:52:15.073Z,13.55
2023-03-15T13:54:47.619Z,13.99
2023-03-15T13:57:23.040Z,14.11
2023-03-15T14:00:00.031Z,14.94
2023-03-15T14:02:39.760Z,15.48
2023-03-15T14:05:15.349Z,15.49
2023-03-15T14:07:49.974Z,15.39
2023-03-15T14:10:34.194Z,15.76
2023-03-15T14:13:25.457Z,15.56
2023-03-15T14:16:01.858Z,14.44
2023-03-15T14:18:37.372Z,14.13
2023-03-15T14:21:15.874Z,14.19
2023-03-15T14:23:53.137Z,13.72
2023-03-15T14:26:29.273Z,13.79
2023-03-15T14:29:08.954Z,13.89
2023-03-15T14:31:47.995Z,14.07
2023-03-15T14:34:25.207Z,13.55
2023-03-15T14:37:00.002Z,12.84
2023-03-15T14:39:38.345Z,12.39
2023-03-15T14:42:13.358Z,12.38
2023-03-15T14:44:45.431Z,13.48
2023-03-15T14:47:19.022Z,13.71
2023-03-15T14:49:51.172Z,14.20
2023-03-15T14:52:26.018Z,15.06
2023-03-15T14:54:59.657Z,15.60
2023-03-15T14:57:32.046Z,14.78
2023-03-15T15:00:09.938Z,13.77
2023-03-15T15:02:42.518Z,12.89
2023-03-15T15:05:23.243Z,12.28
2023-03-15T15:08:00.238Z,11.73
2023-03-15T15:10:35.014Z,11.30
2023-03-15T15:13:07.734Z,10.83
2023-03-15T15:15:54.690Z,10.59
2023-03-15T15:18:29.226Z,10.21
2023-03-15T15:21:13.074Z,9.98
2023-03-15T15:23:57.767Z,9.83
2023-03-15T15:26:33.482Z,9.64
2023-03-15T15:29:05.819Z,9.49
2023-03-15T15:31:38.028Z,9.40
2023-03-15T15:34:11.673Z,9.23
2023-03-15T15:36:45.678Z,9.05
2023-03-15T15:39:24.430Z,8.97
2023-03-15T15:41:57.288Z,8.87
2023-03-15T15:44:29.403Z,8.76
2023-03-15T15:47:01.583Z,8.63
2023-03-15T15:49:33.644Z,8.41
2023-03-15T15:52:06.061Z,8.29
2023-03-15T15:54:38.234Z,8.20
2023-03-15T15:57:14.245Z,8.16
2023-03-15T15:59:44.712Z,8.02
2023-03-15T16:02:22.457Z,7.88
2023-03-15T16:04:55.314Z,7.79
2023-03-15T16:07:28.017Z,7.70
2023-03-15T16:10:01.235Z,7.63
2023-03-15T16:12:33.982Z,7.56
2023-03-15T16:15:07.070Z,7.44
2023-03-15T16:17:40.161Z,7.35
2023-03-15T16:20:14.529Z,7.20
2023-03-15T16:22:50.738Z,7.09
2023-03-15T16:25:27.469Z,7.01
2023-03-15T16:28:02.296Z,6.85
2023-03-15T16:30:35.290Z,6.74
2023-03-15T16:33:16.368Z,6.60
2023-03-15T16:35:50.431Z,6.48
2023-03-15T16:38:28.429Z,6.35
2023-03-15T16:41:01.662Z,6.33
2023-03-15T16:43:33.841Z,6.28
2023-03-15T16:46:15.988Z,6.18
2023-03-15T16:48:48.726Z,6.10
2023-03-15T16:51:20.930Z,6.00
2023-03-15T16:54:05.022Z,5.91
2023-03-15T16:56:41.016Z,5.80
2023-03-15T16:59:16.931Z,5.72
2023-03-15T17:01:49.542Z,5.64
2023-03-15T17:04:22.367Z,5.54
2023-03-15T17:06:54.708Z,5.44
2023-03-15T17:09:28.903Z,5.22
2023-03-15T17:12:03.539Z,5.06
2023-03-15T17:14:38.927Z,4.97
2023-03-15T17:17:11.453Z,4.82
2023-03-15T17:19:44.093Z,4.63
2023-03-15T17:22:17.102Z,4.44
2023-03-15T17:24:50.353Z,4.41
2023-03-15T17:27:36.812Z,4.31
2023-03-15T17:30:21.022Z,4.14
2023-03-15T17:32:54.353Z,4.06
2023-03-15T17:35:30.227Z,4.03
2023-03-15T17:38:01.543Z,3.97
2023-03-15T17:40:36.563Z,3.90
2023-03-15T17:43:13.069Z,3.85
2023-03-15T17:45:45.853Z,3.78
2023-03-15T17:48:18.314Z,3.71
2023-03-15T17:50:50.803Z,3.64
2023-03-15T17:53:23.391Z,3.59
2023-03-15T17:55:55.818Z,3.53
2023-03-15T17:58:28.275Z,3.49
2023-03-15T18:01:00.789Z,3.47
2023-03-15T18:03:33.738Z,3.41
2023-03-15T18:06:06.866Z,3.38
2023-03-15T18:08:40.128Z,3.33
2023-03-15T18:11:23.824Z,3.29
2023-03-15T18:13:57.575Z,3.28
2023-03-15T18:16:30.143Z,3.27
2023-03-15T18:19:02.661Z,3.22
2023-03-15T18:21:35.315Z,3.20
2023-03-15T18:24:08.614Z,3.19
2023-03-15T18:26:40.766Z,3.12
2023-03-15T18:29:13.503Z,3.05
2023-03-15T18:31:46.123Z,2.99
2023-03-15T18:34:23.377Z,2.88
2023-03-15T18:36:56.082Z,2.84
2023-03-15T18:39:28.405Z,2.80
2023-03-15T18:42:01.074Z,2.75
2023-03-15T18:44:34.351Z,2.65
2023-03-15T18:47:08.638Z,2.53
2023-03-15T18:49:41.271Z,2.42
2023-03-15T18:52:17.114Z,2.34
2023-03-15T18:54:49.482Z,2.30
2023-03-15T18:57:21.838Z,2.31
2023-03-15T18:59:54.996Z,2.30
2023-03-15T19:02:27.622Z,2.32
2023-03-15T19:05:01.663Z,2.32
2023-03-15T19:07:34.154Z,2.31
2023-03-15T19:10:07.606Z,2.30
2023-03-15T19:12:40.802Z,2.33
2023-03-15T19:15:17.428Z,2.35
2023-03-15T19:17:52.237Z,2.29
2023-03-15T19:20:25.145Z,2.22
2023-03-15T19:22:57.506Z,2.16
2023-03-15T19:25:29.996Z,2.11
2023-03-15T19:28:02.125Z,2.07
2023-03-15T19:30:34.761Z,2.05
2023-03-15T19:33:07.051Z,2.04
2023-03-15T19:35:39.292Z,2.04
2023-03-15T19:38:11.503Z,2.04
2023-03-15T19:40:43.879Z,2.02
2023-03-15T19:43:16.349Z,1.98
2023-03-15T19:45:48.628Z,1.94
2023-03-15T19:48:21.409Z,1.89
2023-03-15T19:50:53.580Z,1.83
2023-03-15T19:53:26.404Z,1.79
2023-03-15T19:55:59.045Z,1.75
2023-03-15T19:58:32.170Z,1.71
2023-03-15T20:01:04.402Z,1.65
2023-03-15T20:03:37.052Z,1.64
2023-03-15T20:06:12.536Z,1.63
2023-03-15T20:08:45.028Z,1.60
2023-03-15T20:11:21.390Z,1.61
2023-03-15T20:13:54.649Z,1.61
2023-03-15T20:16:27.071Z,1.60
2023-03-15T20:18:59.763Z,1.54
2023-03-15T20:21:32.018Z,1.46
2023-03-15T20:24:04.817Z,1.40
2023-03-15T20:26:37.246Z,1.35
2023-03-15T20:29:09.719Z,1.35
2023-03-15T20:31:42.045Z,1.32
2023-03-15T20:34:14.499Z,1.32
2023-03-15T20:36:46.690Z,1.33
2023-03-15T20:39:18.957Z,1.29
2023-03-15T20:41:51.248Z,1.18
2023-03-15T20:44:23.701Z,1.07
2023-03-15T20:46:59.067Z,1.00
2023-03-15T20:49:31.604Z,0.93
2023-03-15T20:52:03.850Z,0.92
2023-03-15T20:54:36.946Z,0.90
2023-03-15T20:57:09.003Z,0.85
2023-03-15T20:59:41.132Z,0.82
2023-03-15T21:02:14.085Z,0.80
2023-03-15T21:04:46.334Z,0.75
2023-03-15T21:07:18.515Z,0.73
2023-03-15T21:09:50.660Z,0.79
2023-03-15T21:12:22.766Z,0.90
2023-03-15T21:14:54.836Z,1.03
2023-03-15T21:17:27.115Z,1.18
2023-03-15T21:19:59.378Z,1.29
2023-03-15T21:22:31.543Z,1.36
2023-03-15T21:25:03.745Z,1.40
2023-03-15T21:27:35.846Z,1.41
2023-03-15T21:30:10.108Z,1.44
2023-03-15T21:32:42.988Z,1.42
2023-03-15T21:35:17.230Z,1.38
2023-03-15T21:37:49.623Z,1.33
2023-03-15T21:40:22.214Z,1.30
2023-03-15T21:42:54.445Z,1.25
2023-03-15T21:45:26.637Z,1.20
2023-03-15T21:47:58.808Z,1.18
2023-03-15T21:50:31.537Z,1.14
2023-03-15T21:53:03.998Z,1.09
2023-03-15T21:55:36.080Z,1.05
2023-03-15T21:58:08.220Z,1.02
2023-03-15T22:00:40.338Z,1.04
2023-03-15T22:03:14.242Z,1.04
2023-03-15T22:05:48.099Z,1.05
2023-03-15T22:08:20.054Z,1.08
2023-03-15T22:10:55.360Z,1.12
2023-03-15T22:13:30.160Z,1.15
2023-03-15T22:16:02.580Z,1.19
2023-03-15T22:18:34.664Z,1.23
2023-03-15T22:21:07.015Z,1.26
2023-03-15T22:23:39.123Z,1.26
2023-03-15T22:26:11.322Z,1.20
2023-03-15T22:28:43.351Z,1.15
2023-03-15T22:31:15.504Z,1.14
2023-03-15T22:33:47.844Z,1.07
2023-03-15T22:36:19.960Z,1.01
2023-03-15T22:38:52.330Z,0.95
2023-03-15T22:41:24.494Z,0.90
2023-03-15T22:43:57.938Z,0.84
2023-03-15T22:46:34.845Z,0.82
2023-03-15T22:49:07.114Z,0.78
2023-03-15T22:51:40.984Z,0.73
2023-03-15T22:54:13.202Z,0.68
2023-03-15T22:56:45.434Z,0.69
2023-03-15T22:59:17.829Z,0.70
2023-03-15T23:01:50.003Z,0.75
2023-03-15T23:04:22.109Z,0.76
2023-03-15T23:06:54.307Z,0.78
2023-03-15T23:09:26.449Z,0.81
2023-03-15T23:11:58.674Z,0.83
2023-03-15T23:14:30.880Z,0.84
2023-03-15T23:17:04.727Z,0.85
2023-03-15T23:19:37.062Z,0.82
2023-03-15T23:22:09.270Z,0.82
2023-03-15T23:24:41.376Z,0.78
2023-03-15T23:27:14.057Z,0.73
2023-03-15T23:29:54.439Z,0.69
2023-03-15T23:32:27.402Z,0.63
2023-03-15T23:34:59.532Z,0.60
2023-03-15T23:37:32.958Z,0.58
2023-03-15T23:40:11.587Z,0.56
2023-03-15T23:42:44.518Z,0.51
2023-03-15T23:45:17.619Z,0.48
2023-03-15T23:47:49.983Z,0.49
2023-03-15T23:50:26.477Z,0.50
2023-03-15T23:52:59.201Z,0.52
2023-03-15T23:55:31.266Z,0.53
2023-03-15T23:58:06.940Z,0.54
